Byron, Minnesota
Current Conditions -  °F | °C
As of 10:34 PM on Tuesday 21 Oct 2014 (Local Time) from K9MN Reporting Station
Clear Clear  
Wind Chill: 40°   Ceiling: Unl
Heat Index: 45°   Visibility: 10mi
Dew Point: 35°   Wind: 8mph
Humidity: 68%   Direction: 120°ESE
Pressure: 30.21"   Gusts: NA
Location:  44.03°N, 92.65°W
Report Text: K9MN 220334Z AUTO 12007KT 10SM CLR 07/02 A3021 RMK AO1 T00700015
Loading
Personal Weather Stations






























Interactive Weather Map
Tropical Storm Tracking
New forecast layout! Learn more

10-Day Weather Forecast

Advertisements
Track Severe Weather on mobile